createdAt,value
2017-07-10T00:01:15.574Z,2.77
2017-07-10T00:03:43.334Z,2.60
2017-07-10T00:06:11.054Z,2.77
2017-07-10T00:08:38.899Z,3.20
2017-07-10T00:11:06.766Z,2.07
2017-07-10T00:13:34.793Z,2.50
2017-07-10T00:16:02.570Z,2.20
2017-07-10T00:18:30.316Z,3.80
2017-07-10T00:20:59.241Z,3.10
2017-07-10T00:23:27.017Z,2.63
2017-07-10T00:25:54.742Z,2.33
2017-07-10T00:28:22.585Z,2.87
2017-07-10T00:30:50.321Z,2.33
2017-07-10T00:33:18.113Z,2.87
2017-07-10T00:35:45.812Z,1.67
2017-07-10T00:38:13.577Z,2.13
2017-07-10T00:40:41.330Z,1.80
2017-07-10T00:43:09.136Z,2.20
2017-07-10T00:45:36.950Z,2.13
2017-07-10T00:48:04.640Z,2.30
2017-07-10T00:50:32.358Z,2.80
2017-07-10T00:53:00.178Z,2.57
2017-07-10T00:55:27.888Z,3.07
2017-07-10T00:57:55.610Z,2.17
2017-07-10T01:00:23.481Z,2.57
2017-07-10T01:02:51.215Z,2.40
2017-07-10T01:05:18.904Z,2.00
2017-07-10T01:07:46.734Z,2.13
2017-07-10T01:10:15.006Z,1.60
2017-07-10T01:12:42.749Z,1.83
2017-07-10T01:15:10.531Z,2.40
2017-07-10T01:17:38.615Z,1.73
2017-07-10T01:20:06.358Z,2.17
2017-07-10T01:22:34.074Z,2.00
2017-07-10T01:25:01.859Z,2.03
2017-07-10T01:27:29.597Z,1.60
2017-07-10T01:29:57.355Z,2.40
2017-07-10T01:32:25.097Z,2.00
2017-07-10T01:34:52.857Z,1.90
2017-07-10T01:37:20.593Z,1.60
2017-07-10T01:39:48.346Z,2.20
2017-07-10T01:42:16.107Z,2.87
2017-07-10T01:44:43.853Z,2.30
2017-07-10T01:47:11.609Z,2.80
2017-07-10T01:49:39.313Z,2.17
2017-07-10T01:52:07.114Z,1.90
2017-07-10T01:54:34.894Z,2.17
2017-07-10T01:57:02.662Z,2.73
2017-07-10T01:59:30.389Z,2.40
2017-07-10T02:01:58.096Z,2.97
2017-07-10T02:04:25.831Z,2.90
2017-07-10T02:06:53.518Z,3.30
2017-07-10T02:09:21.306Z,2.20
2017-07-10T02:11:49.035Z,2.80
2017-07-10T02:14:16.799Z,2.20
2017-07-10T02:16:44.519Z,2.17
2017-07-10T02:19:12.226Z,2.77
2017-07-10T02:21:40.012Z,3.13
2017-07-10T02:24:07.803Z,3.53
2017-07-10T02:26:35.512Z,3.20
2017-07-10T02:29:03.263Z,2.77
2017-07-10T02:31:30.993Z,2.70
2017-07-10T02:33:58.747Z,3.17
2017-07-10T02:36:26.493Z,2.60
2017-07-10T02:38:54.259Z,3.43
2017-07-10T02:41:22.015Z,3.63
2017-07-10T02:43:49.717Z,3.50
2017-07-10T02:46:17.450Z,3.47
2017-07-10T02:48:45.208Z,3.17
2017-07-10T02:51:12.933Z,2.60
2017-07-10T02:53:40.669Z,3.30
2017-07-10T02:56:08.420Z,3.53
2017-07-10T02:58:36.254Z,3.00
2017-07-10T03:01:04.003Z,3.40
2017-07-10T03:03:31.688Z,3.30
2017-07-10T03:05:59.536Z,3.90
2017-07-10T03:08:27.287Z,4.33
2017-07-10T03:10:54.995Z,3.80
2017-07-10T03:13:22.758Z,3.43
2017-07-10T03:15:50.489Z,3.50
2017-07-10T03:18:18.384Z,2.70
2017-07-10T03:20:46.739Z,3.20
2017-07-10T03:23:14.452Z,2.63
2017-07-10T03:25:42.221Z,2.60
2017-07-10T03:28:09.925Z,2.43
2017-07-10T03:30:37.644Z,3.13
2017-07-10T03:33:05.417Z,2.53
2017-07-10T03:35:33.137Z,3.27
2017-07-10T03:38:00.890Z,3.07
2017-07-10T03:40:28.621Z,3.33
2017-07-10T03:42:56.314Z,3.07
2017-07-10T03:45:24.158Z,2.67
2017-07-10T03:47:51.859Z,3.20
2017-07-10T03:50:19.639Z,2.37
2017-07-10T03:52:47.412Z,2.87
2017-07-10T03:55:15.126Z,2.73
2017-07-10T03:57:42.831Z,3.03
2017-07-10T04:00:10.674Z,3.17
2017-07-10T04:02:38.554Z,2.73
2017-07-10T04:05:06.262Z,3.23
2017-07-10T04:07:33.961Z,3.73
2017-07-10T04:10:01.711Z,2.50
2017-07-10T04:12:29.476Z,3.53
2017-07-10T04:14:57.230Z,3.57
2017-07-10T04:17:25.078Z,3.37
2017-07-10T04:19:52.875Z,3.80
2017-07-10T04:22:20.666Z,3.07
2017-07-10T04:24:48.446Z,4.00
2017-07-10T04:27:16.151Z,3.30
2017-07-10T04:29:43.877Z,2.87
2017-07-10T04:32:11.626Z,4.20
2017-07-10T04:34:39.321Z,4.30
2017-07-10T04:37:07.053Z,4.03
2017-07-10T04:39:34.836Z,3.30
2017-07-10T04:42:02.540Z,3.63
2017-07-10T04:44:30.271Z,3.57
2017-07-10T04:46:58.047Z,3.97
2017-07-10T04:49:25.790Z,3.47
2017-07-10T04:51:53.548Z,4.23
2017-07-10T04:54:21.259Z,3.10
2017-07-10T04:56:49.182Z,3.67
2017-07-10T04:59:16.922Z,2.73
2017-07-10T05:01:44.697Z,2.90
2017-07-10T05:04:12.447Z,2.33
2017-07-10T05:06:40.432Z,3.07
2017-07-10T05:09:08.138Z,3.20
2017-07-10T05:11:35.846Z,4.53
2017-07-10T05:14:03.594Z,5.03
2017-07-10T05:16:31.330Z,3.77
2017-07-10T05:18:59.127Z,4.30
2017-07-10T05:21:26.899Z,3.40
2017-07-10T05:23:54.606Z,3.10
2017-07-10T05:26:22.353Z,2.60
2017-07-10T05:28:50.119Z,2.33
2017-07-10T05:31:17.839Z,2.43
2017-07-10T05:33:45.622Z,2.87
2017-07-10T05:36:13.407Z,2.30
2017-07-10T05:38:41.232Z,2.77
2017-07-10T05:41:08.990Z,2.30
2017-07-10T05:43:36.887Z,2.60
2017-07-10T05:46:04.607Z,3.30
2017-07-10T05:48:32.357Z,2.70
2017-07-10T05:51:00.117Z,4.53
2017-07-10T05:53:27.861Z,2.63
2017-07-10T05:55:55.723Z,3.90
2017-07-10T05:58:23.545Z,3.67
2017-07-10T06:00:52.263Z,3.90
2017-07-10T06:03:20.073Z,4.53
2017-07-10T06:05:47.833Z,5.00
2017-07-10T06:08:16.513Z,3.90
2017-07-10T06:10:44.276Z,4.30
2017-07-10T06:13:12.052Z,3.50
2017-07-10T06:15:39.845Z,4.27
2017-07-10T06:18:07.641Z,4.40
2017-07-10T06:20:35.358Z,3.63
2017-07-10T06:23:03.118Z,3.97
2017-07-10T06:25:30.996Z,3.30
2017-07-10T06:27:58.722Z,2.43
2017-07-10T06:30:26.544Z,2.60
2017-07-10T06:32:54.356Z,2.13
2017-07-10T06:35:22.167Z,2.73
2017-07-10T06:37:50.123Z,2.50
2017-07-10T06:40:17.907Z,2.87
2017-07-10T06:42:45.714Z,2.97
2017-07-10T06:45:13.486Z,2.57
2017-07-10T06:47:41.292Z,2.40
2017-07-10T06:50:09.054Z,2.33
2017-07-10T06:52:36.895Z,2.50
2017-07-10T06:55:04.810Z,2.80
2017-07-10T06:57:32.514Z,2.53
2017-07-10T07:00:00.321Z,2.30
2017-07-10T07:02:28.001Z,2.27
2017-07-10T07:04:55.840Z,2.80
2017-07-10T07:07:23.635Z,2.60
2017-07-10T07:09:51.392Z,2.30
2017-07-10T07:12:19.164Z,3.90
2017-07-10T07:14:46.977Z,3.37
2017-07-10T07:17:14.815Z,2.90
2017-07-10T07:19:42.712Z,3.20
2017-07-10T07:22:10.428Z,3.20
2017-07-10T07:24:38.160Z,2.60
2017-07-10T07:27:05.952Z,2.77
2017-07-10T07:29:33.746Z,3.10
2017-07-10T07:32:01.460Z,2.73
2017-07-10T07:34:29.215Z,3.70
2017-07-10T07:36:57.098Z,3.97
2017-07-10T07:39:24.905Z,3.57
2017-07-10T07:41:53.585Z,3.80
2017-07-10T07:44:21.390Z,3.50
2017-07-10T07:46:49.199Z,3.40
2017-07-10T07:49:16.916Z,3.23
2017-07-10T07:51:44.666Z,2.70
2017-07-10T07:54:12.440Z,3.13
2017-07-10T07:56:40.315Z,2.87
2017-07-10T07:59:08.065Z,3.63
2017-07-10T08:01:35.943Z,3.57
2017-07-10T08:04:03.700Z,3.50
2017-07-10T08:06:31.750Z,2.80
2017-07-10T08:08:59.594Z,2.23
2017-07-10T08:11:28.004Z,3.40
2017-07-10T08:13:55.932Z,2.67
2017-07-10T08:16:23.680Z,3.43
2017-07-10T08:18:51.554Z,3.80
2017-07-10T08:21:19.377Z,3.20
2017-07-10T08:23:47.240Z,2.80
2017-07-10T08:26:15.013Z,4.03
2017-07-10T08:28:43.194Z,2.70
2017-07-10T08:31:11.025Z,2.50
2017-07-10T08:33:38.828Z,2.80
2017-07-10T08:36:06.639Z,2.80
2017-07-10T08:38:34.421Z,3.10
2017-07-10T08:41:02.256Z,2.70
2017-07-10T08:43:29.986Z,2.90
2017-07-10T08:45:57.834Z,3.20
2017-07-10T08:48:25.555Z,2.60
2017-07-10T08:50:54.501Z,2.50
2017-07-10T08:53:22.305Z,2.70
2017-07-10T08:55:50.036Z,2.70
2017-07-10T08:58:17.873Z,2.50
2017-07-10T09:00:45.591Z,2.40
2017-07-10T09:03:13.382Z,2.80
2017-07-10T09:05:41.120Z,2.50
2017-07-10T09:08:09.323Z,2.47
2017-07-10T09:10:37.061Z,2.63
2017-07-10T09:13:04.836Z,3.60
2017-07-10T09:15:33.422Z,4.50
2017-07-10T09:18:01.191Z,3.73
2017-07-10T09:20:28.942Z,3.40
2017-07-10T09:22:56.782Z,3.87
2017-07-10T09:25:24.602Z,3.93
2017-07-10T09:27:52.371Z,3.77
2017-07-10T09:30:20.132Z,3.60
2017-07-10T09:32:47.903Z,3.20
2017-07-10T09:35:15.718Z,3.57
2017-07-10T09:37:43.427Z,3.10
2017-07-10T09:40:12.003Z,3.17
2017-07-10T09:42:39.775Z,3.17
2017-07-10T09:45:07.659Z,3.97
2017-07-10T09:47:35.377Z,2.93
2017-07-10T09:50:03.129Z,3.30
2017-07-10T09:52:30.873Z,3.73
2017-07-10T09:54:58.711Z,3.70
2017-07-10T09:57:26.502Z,2.73
2017-07-10T09:59:54.208Z,2.70
2017-07-10T10:02:21.999Z,3.43
2017-07-10T10:04:49.767Z,2.83
2017-07-10T10:07:17.605Z,3.00
2017-07-10T10:09:45.388Z,3.20
2017-07-10T10:12:13.134Z,4.03
2017-07-10T10:14:41.293Z,3.20
2017-07-10T10:17:09.020Z,2.90
2017-07-10T10:19:37.162Z,3.33
2017-07-10T10:22:04.907Z,2.67
2017-07-10T10:24:32.639Z,3.37
2017-07-10T10:27:00.456Z,3.43
2017-07-10T10:29:28.379Z,3.40
2017-07-10T10:31:56.114Z,3.20
2017-07-10T10:34:23.897Z,3.30
2017-07-10T10:36:51.656Z,3.70
2017-07-10T10:39:19.545Z,4.00
2017-07-10T10:41:47.253Z,3.10
2017-07-10T10:44:15.180Z,3.73
2017-07-10T10:46:43.776Z,4.07
2017-07-10T10:49:11.503Z,3.07
2017-07-10T10:51:39.314Z,3.60
2017-07-10T10:54:07.077Z,4.30
2017-07-10T10:56:34.954Z,4.17
2017-07-10T10:59:02.726Z,4.10
2017-07-10T11:01:30.481Z,5.27
2017-07-10T11:03:58.284Z,4.90
2017-07-10T11:06:26.021Z,4.40
2017-07-10T11:08:53.765Z,4.43
2017-07-10T11:11:21.518Z,6.27
2017-07-10T11:13:49.347Z,6.47
2017-07-10T11:16:17.162Z,5.93
2017-07-10T11:18:44.920Z,5.10
2017-07-10T11:21:12.785Z,5.90
2017-07-10T11:23:41.586Z,5.60
2017-07-10T11:26:10.615Z,5.10
2017-07-10T11:28:38.367Z,5.77
2017-07-10T11:31:06.056Z,5.10
2017-07-10T11:33:33.855Z,4.90
2017-07-10T11:36:01.666Z,5.57
2017-07-10T11:38:29.574Z,5.10
2017-07-10T11:40:57.264Z,4.90
2017-07-10T11:43:25.144Z,4.40
2017-07-10T11:45:52.981Z,4.37
2017-07-10T11:48:20.773Z,4.23
2017-07-10T11:50:48.574Z,4.50
2017-07-10T11:53:16.274Z,4.43
2017-07-10T11:55:44.057Z,4.60
2017-07-10T11:58:11.806Z,5.63
2017-07-10T12:00:39.538Z,6.73
2017-07-10T12:03:08.284Z,6.20
2017-07-10T12:05:36.023Z,4.63
2017-07-10T12:08:03.765Z,5.57
2017-07-10T12:10:31.503Z,5.20
2017-07-10T12:12:59.316Z,5.13
2017-07-10T12:15:27.058Z,5.53
2017-07-10T12:17:55.007Z,4.40
2017-07-10T12:26:04.043Z,4.83
2017-07-10T12:28:31.814Z,4.77
2017-07-10T12:30:59.571Z,4.90
2017-07-10T12:33:27.349Z,4.70
2017-07-10T12:35:55.045Z,5.17
2017-07-10T12:38:22.752Z,6.67
2017-07-10T12:40:50.550Z,6.63
2017-07-10T12:43:18.332Z,7.37
2017-07-10T12:45:46.259Z,6.33
2017-07-10T12:48:14.019Z,8.03
2017-07-10T12:50:42.786Z,8.20
2017-07-10T12:53:10.551Z,6.97
2017-07-10T12:55:38.309Z,8.07
2017-07-10T12:58:06.048Z,7.33
2017-07-10T13:00:33.875Z,6.30
2017-07-10T13:03:02.088Z,8.57
2017-07-10T13:05:29.841Z,4.90
2017-07-10T13:07:57.530Z,3.77
2017-07-10T13:10:26.601Z,6.10
2017-07-10T13:12:54.400Z,4.83
2017-07-10T13:15:22.254Z,4.17
2017-07-10T13:17:49.959Z,4.37
2017-07-10T13:20:17.694Z,3.43
2017-07-10T13:22:45.431Z,3.83
2017-07-10T13:25:13.190Z,3.30
2017-07-10T13:27:41.148Z,3.90
2017-07-10T13:30:08.995Z,5.07
2017-07-10T13:32:36.809Z,3.80
2017-07-10T13:35:04.634Z,3.30
2017-07-10T13:37:33.042Z,4.50
2017-07-10T13:40:00.753Z,4.27
2017-07-10T13:42:28.602Z,5.10
2017-07-10T13:44:56.386Z,4.70
2017-07-10T13:47:24.210Z,3.90
2017-07-10T13:49:52.430Z,4.07
2017-07-10T13:52:20.258Z,4.53
2017-07-10T13:54:47.976Z,5.87
2017-07-10T13:57:16.558Z,4.40
2017-07-10T13:59:45.541Z,3.53
2017-07-10T14:02:13.358Z,4.80
2017-07-10T14:04:41.161Z,4.30
2017-07-10T14:07:09.665Z,6.00
2017-07-10T14:09:37.425Z,5.87
2017-07-10T14:12:05.216Z,4.83
2017-07-10T14:14:33.130Z,6.27
2017-07-10T14:17:00.842Z,4.47
2017-07-10T14:19:28.612Z,5.03
2017-07-10T14:21:56.343Z,5.23
2017-07-10T14:24:24.151Z,4.40
2017-07-10T14:26:51.924Z,4.57
2017-07-10T14:29:19.767Z,4.63
2017-07-10T14:31:47.543Z,5.47
2017-07-10T14:34:15.406Z,4.20
2017-07-10T14:36:43.252Z,6.23
2017-07-10T14:39:10.995Z,5.37
2017-07-10T14:41:38.863Z,6.13
2017-07-10T14:44:06.656Z,5.23
2017-07-10T14:46:34.467Z,5.30
2017-07-10T14:49:02.316Z,5.63
2017-07-10T14:51:30.120Z,4.50
2017-07-10T14:53:57.899Z,5.37
2017-07-10T14:56:26.257Z,5.73
2017-07-10T14:58:54.807Z,5.33
2017-07-10T15:01:22.543Z,5.47
2017-07-10T15:03:50.321Z,5.90
2017-07-10T15:06:18.045Z,6.00
2017-07-10T15:08:45.825Z,4.20
2017-07-10T15:11:13.649Z,5.80
2017-07-10T15:13:41.452Z,4.77
2017-07-10T15:16:09.242Z,4.87
2017-07-10T15:18:37.193Z,5.50
2017-07-10T15:21:06.064Z,5.47
2017-07-10T15:23:33.764Z,4.53
2017-07-10T15:26:01.596Z,5.13
2017-07-10T15:28:29.392Z,5.17
2017-07-10T15:30:57.177Z,5.60
2017-07-10T15:33:25.030Z,4.97
2017-07-10T15:35:52.772Z,4.80
2017-07-10T15:38:20.574Z,4.93
2017-07-10T15:40:48.425Z,4.60
2017-07-10T15:43:16.169Z,4.33
2017-07-10T15:45:43.973Z,4.70
2017-07-10T15:48:11.685Z,5.43
2017-07-10T15:50:39.505Z,4.40
2017-07-10T15:53:07.362Z,4.27
2017-07-10T15:55:35.711Z,3.73
2017-07-10T15:58:03.428Z,3.90
2017-07-10T16:00:31.268Z,5.00
2017-07-10T16:02:59.095Z,5.30
2017-07-10T16:05:26.838Z,4.30
2017-07-10T16:07:55.295Z,3.80
2017-07-10T16:10:24.124Z,5.30
2017-07-10T16:12:51.887Z,5.23
2017-07-10T16:15:19.927Z,4.47
2017-07-10T16:17:47.689Z,5.40
2017-07-10T16:20:15.446Z,3.93
2017-07-10T16:22:43.220Z,4.60
2017-07-10T16:25:10.918Z,5.80
2017-07-10T16:27:38.723Z,6.00
2017-07-10T16:30:06.486Z,5.37
2017-07-10T16:32:34.412Z,6.90
2017-07-10T16:35:02.111Z,5.53
2017-07-10T16:37:29.985Z,5.40
2017-07-10T16:39:57.736Z,5.33
2017-07-10T16:42:25.558Z,5.17
2017-07-10T16:44:53.257Z,5.20
2017-07-10T16:47:21.021Z,5.43
2017-07-10T16:49:48.845Z,4.87
2017-07-10T16:52:17.094Z,4.60
2017-07-10T16:54:44.920Z,4.27
2017-07-10T16:57:12.659Z,4.33
2017-07-10T16:59:40.489Z,4.93
2017-07-10T17:02:08.222Z,4.60
2017-07-10T17:04:36.064Z,4.80
2017-07-10T17:07:03.897Z,4.93
2017-07-10T17:09:31.635Z,5.50
2017-07-10T17:11:59.486Z,5.80
2017-07-10T17:14:27.309Z,5.20
2017-07-10T17:16:55.070Z,5.23
2017-07-10T17:19:24.054Z,5.37
2017-07-10T17:21:51.789Z,5.17
2017-07-10T17:24:19.531Z,4.60
2017-07-10T17:26:47.338Z,4.60
2017-07-10T17:29:15.145Z,5.30
2017-07-10T17:31:43.696Z,4.47
2017-07-10T17:34:11.498Z,5.93
2017-07-10T17:36:39.310Z,3.87
2017-07-10T17:39:07.110Z,5.30
2017-07-10T17:41:34.945Z,4.67
2017-07-10T17:44:02.746Z,4.90
2017-07-10T17:46:30.704Z,4.40
2017-07-10T17:48:58.505Z,4.67
2017-07-10T17:51:26.295Z,3.97
2017-07-10T17:53:55.229Z,4.30
2017-07-10T17:56:23.833Z,4.87
2017-07-10T17:58:51.621Z,4.40
2017-07-10T18:01:19.341Z,5.40
2017-07-10T18:03:47.241Z,4.73
2017-07-10T18:06:15.024Z,5.50
2017-07-10T18:08:42.750Z,4.30
2017-07-10T18:11:10.587Z,4.70
2017-07-10T18:13:38.373Z,5.33
2017-07-10T18:16:06.081Z,5.30
2017-07-10T18:18:33.993Z,4.67
2017-07-10T18:21:01.738Z,4.93
2017-07-10T18:23:29.470Z,4.10
2017-07-10T18:25:57.217Z,5.03
2017-07-10T18:28:25.030Z,5.23
2017-07-10T18:30:52.783Z,4.40
2017-07-10T18:33:20.597Z,4.27
2017-07-10T18:35:48.458Z,4.97
2017-07-10T18:38:16.226Z,4.80
2017-07-10T18:40:44.055Z,4.73
2017-07-10T18:43:11.877Z,4.10
2017-07-10T18:45:40.331Z,4.60
2017-07-10T18:48:08.152Z,5.17
2017-07-10T18:50:35.909Z,4.00
2017-07-10T18:53:05.165Z,4.53
2017-07-10T18:55:33.193Z,4.40
2017-07-10T18:58:00.982Z,4.70
2017-07-10T19:00:28.766Z,5.63
2017-07-10T19:02:59.178Z,4.60
2017-07-10T19:05:27.998Z,4.83
2017-07-10T19:07:56.336Z,5.97
2017-07-10T19:10:24.309Z,4.70
2017-07-10T19:12:52.547Z,4.60
2017-07-10T19:15:20.367Z,4.53
2017-07-10T19:17:48.642Z,4.70
2017-07-10T19:20:16.610Z,4.50
2017-07-10T19:22:44.658Z,4.77
2017-07-10T19:25:14.938Z,5.23
2017-07-10T19:27:44.051Z,5.53
2017-07-10T19:30:12.822Z,4.83
2017-07-10T19:32:41.533Z,4.33
2017-07-10T19:35:10.095Z,4.97
2017-07-10T19:37:37.953Z,5.40
2017-07-10T19:40:06.605Z,5.33
2017-07-10T19:42:35.316Z,4.70
2017-07-10T19:45:03.041Z,6.13
2017-07-10T19:47:30.825Z,4.87
2017-07-10T19:49:58.672Z,5.30
2017-07-10T19:52:26.410Z,5.57
2017-07-10T19:54:55.262Z,4.80
2017-07-10T19:57:23.698Z,5.37
2017-07-10T19:59:51.663Z,5.67
2017-07-10T20:02:19.409Z,4.33
2017-07-10T20:04:47.208Z,5.13
2017-07-10T20:07:14.992Z,4.37
2017-07-10T20:09:42.727Z,5.67
2017-07-10T20:12:10.591Z,4.97
2017-07-10T20:14:38.345Z,5.17
2017-07-10T20:17:06.092Z,4.40
2017-07-10T20:19:33.896Z,4.70
2017-07-10T20:22:01.738Z,4.30
2017-07-10T20:24:29.508Z,5.30
2017-07-10T20:26:57.376Z,4.83
2017-07-10T20:32:36.523Z,10.40
2017-07-10T20:35:04.246Z,5.27
2017-07-10T20:37:32.060Z,5.20
2017-07-10T20:39:59.882Z,5.97
2017-07-10T20:42:27.632Z,5.70
2017-07-10T20:44:55.416Z,4.50
2017-07-10T20:47:23.196Z,5.57
2017-07-10T20:49:50.971Z,5.00
2017-07-10T20:52:18.708Z,6.20
2017-07-10T20:54:46.722Z,5.40
2017-07-10T20:57:15.483Z,5.40
2017-07-10T20:59:43.241Z,4.83
2017-07-10T21:02:11.128Z,5.30
2017-07-10T21:04:38.915Z,5.60
2017-07-10T21:07:06.704Z,5.90
2017-07-10T21:09:35.346Z,5.50
2017-07-10T21:12:04.474Z,5.20
2017-07-10T21:14:32.181Z,6.07
2017-07-10T21:16:59.947Z,4.97
2017-07-10T21:19:27.788Z,5.10
2017-07-10T21:21:55.484Z,5.60
2017-07-10T21:24:24.048Z,5.27
2017-07-10T21:26:51.927Z,4.60
2017-07-10T21:29:20.933Z,5.77
2017-07-10T21:31:48.842Z,5.10
2017-07-10T21:34:16.610Z,4.27
2017-07-10T21:36:44.457Z,3.27
2017-07-10T21:39:12.249Z,3.77
2017-07-10T21:41:39.962Z,3.20
2017-07-10T21:44:07.793Z,2.60
2017-07-10T21:46:35.733Z,3.13
2017-07-10T21:49:03.565Z,3.63
2017-07-10T21:51:31.254Z,3.10
2017-07-10T21:53:58.950Z,2.90
2017-07-10T21:56:26.737Z,3.00
2017-07-10T21:58:54.526Z,3.07
2017-07-10T22:01:22.265Z,2.30
2017-07-10T22:03:50.034Z,3.07
2017-07-10T22:06:17.801Z,3.53
2017-07-10T22:08:45.512Z,2.63
2017-07-10T22:11:13.271Z,4.10
2017-07-10T22:13:41.133Z,4.30
2017-07-10T22:16:08.917Z,4.80
2017-07-10T22:18:36.881Z,3.17
2017-07-10T22:21:04.736Z,2.80
2017-07-10T22:23:32.523Z,2.80
2017-07-10T22:26:00.239Z,3.70
2017-07-10T22:28:28.006Z,2.10
2017-07-10T22:30:55.993Z,2.23
2017-07-10T22:33:23.895Z,2.00
2017-07-10T22:35:51.605Z,1.70
2017-07-10T22:38:19.346Z,2.60
2017-07-10T22:40:47.084Z,2.20
2017-07-10T22:43:14.787Z,1.80
2017-07-10T22:45:42.563Z,2.17
2017-07-10T22:48:10.332Z,2.43
2017-07-10T22:50:38.070Z,2.57
2017-07-10T22:53:05.794Z,1.77
2017-07-10T22:55:33.513Z,2.20
2017-07-10T22:58:01.409Z,2.17
2017-07-10T23:00:29.137Z,1.23
2017-07-10T23:02:56.890Z,1.50
2017-07-10T23:05:24.669Z,1.40
2017-07-10T23:07:52.371Z,2.40
2017-07-10T23:10:20.193Z,2.10
2017-07-10T23:12:47.898Z,2.07
2017-07-10T23:15:15.788Z,2.40
2017-07-10T23:17:43.539Z,1.63
2017-07-10T23:20:11.246Z,2.17
2017-07-10T23:22:38.999Z,3.43
2017-07-10T23:25:06.703Z,2.43
2017-07-10T23:27:34.503Z,2.63
2017-07-10T23:30:02.246Z,2.67
2017-07-10T23:32:30.031Z,2.30
2017-07-10T23:34:57.739Z,2.27
2017-07-10T23:37:25.503Z,2.07
2017-07-10T23:39:53.248Z,2.03
2017-07-10T23:42:21.029Z,2.07
2017-07-10T23:44:48.796Z,1.73
2017-07-10T23:47:16.721Z,2.13
2017-07-10T23:49:44.432Z,1.50
2017-07-10T23:52:12.143Z,1.50
2017-07-10T23:54:39.912Z,2.50
2017-07-10T23:57:07.658Z,1.87
2017-07-10T23:59:35.441Z,1.67
